createdAt,value
2022-10-18T00:00:01.352Z,2.38
2022-10-18T00:02:28.095Z,1.50
2022-10-18T00:04:54.849Z,2.20
2022-10-18T00:07:21.602Z,1.90
2022-10-18T00:09:48.296Z,2.10
2022-10-18T00:12:15.054Z,2.72
2022-10-18T00:14:41.802Z,2.63
2022-10-18T00:17:08.463Z,1.83
2022-10-18T00:19:35.144Z,2.00
2022-10-18T00:22:01.890Z,2.40
2022-10-18T00:24:28.547Z,2.72
2022-10-18T00:26:55.218Z,2.55
2022-10-18T00:29:21.872Z,1.83
2022-10-18T00:31:48.625Z,2.33
2022-10-18T00:34:15.964Z,2.67
2022-10-18T00:36:43.266Z,1.80
2022-10-18T00:39:17.690Z,2.67
2022-10-18T00:41:44.383Z,1.55
2022-10-18T00:44:11.039Z,2.40
2022-10-18T00:46:39.912Z,2.88
2022-10-18T00:49:17.713Z,2.05
2022-10-18T00:51:51.174Z,3.10
2022-10-18T00:54:17.921Z,1.92
2022-10-18T00:56:45.027Z,2.50
2022-10-18T00:59:12.989Z,2.30
2022-10-18T01:01:39.740Z,2.88
2022-10-18T01:04:06.484Z,2.03
2022-10-18T01:06:33.233Z,2.13
2022-10-18T01:09:26.618Z,1.70
2022-10-18T01:12:00.735Z,2.17
2022-10-18T01:17:33.563Z,2.10
2022-10-18T01:20:36.107Z,1.85
2022-10-18T01:23:19.509Z,1.60
2022-10-18T01:25:55.851Z,1.70
2022-10-18T01:28:34.574Z,1.73
2022-10-18T01:31:09.328Z,2.15
2022-10-18T01:34:05.805Z,2.08
2022-10-18T01:36:34.172Z,1.17
2022-10-18T01:39:03.103Z,2.45
2022-10-18T01:41:29.926Z,1.30
2022-10-18T01:43:59.127Z,3.33
2022-10-18T01:46:25.931Z,1.50
2022-10-18T01:48:53.240Z,1.15
2022-10-18T01:51:30.315Z,1.38
2022-10-18T01:53:57.153Z,1.55
2022-10-18T01:56:44.194Z,1.65
2022-10-18T01:59:28.996Z,1.45
2022-10-18T02:02:06.848Z,2.13
2022-10-18T02:04:42.406Z,1.75
2022-10-18T02:08:18.744Z,1.77
2022-10-18T02:10:50.301Z,1.98
2022-10-18T02:13:19.137Z,1.45
2022-10-18T02:15:47.616Z,1.50
2022-10-18T02:18:25.604Z,1.50
2022-10-18T02:20:52.324Z,1.20
2022-10-18T02:23:21.435Z,1.50
2022-10-18T02:25:48.243Z,2.45
2022-10-18T02:28:14.982Z,1.30
2022-10-18T02:30:48.569Z,1.20
2022-10-18T02:33:35.556Z,1.80
2022-10-18T02:36:05.540Z,1.70
2022-10-18T02:38:32.227Z,1.80
2022-10-18T02:40:59.192Z,1.48
2022-10-18T02:43:25.877Z,2.67
2022-10-18T02:45:52.665Z,1.80
2022-10-18T02:48:19.341Z,1.95
2022-10-18T02:50:46.012Z,1.70
2022-10-18T02:53:12.709Z,1.08
2022-10-18T02:55:39.437Z,1.55
2022-10-18T02:58:06.153Z,1.33
2022-10-18T03:00:32.855Z,1.20
2022-10-18T03:02:59.528Z,1.25
2022-10-18T03:05:26.251Z,1.40
2022-10-18T03:07:52.992Z,1.40
2022-10-18T03:10:19.749Z,1.60
2022-10-18T03:12:46.575Z,1.75
2022-10-18T03:15:13.421Z,1.38
2022-10-18T03:17:40.084Z,1.70
2022-10-18T03:20:07.354Z,2.58
2022-10-18T03:22:34.053Z,1.13
2022-10-18T03:25:00.892Z,1.30
2022-10-18T03:27:27.629Z,1.40
2022-10-18T03:29:54.385Z,1.30
2022-10-18T03:32:21.079Z,1.30
2022-10-18T03:34:47.751Z,1.13
2022-10-18T03:37:14.442Z,1.25
2022-10-18T03:39:41.117Z,6.25
2022-10-18T03:42:07.786Z,1.40
2022-10-18T03:44:34.460Z,1.70
2022-10-18T03:47:01.248Z,1.90
2022-10-18T03:49:28.012Z,1.48
2022-10-18T03:51:54.776Z,2.20
2022-10-18T03:54:21.512Z,1.95
2022-10-18T03:56:48.241Z,1.90
2022-10-18T03:59:17.107Z,1.98
2022-10-18T04:01:43.874Z,0.95
2022-10-18T04:04:10.615Z,1.65
2022-10-18T04:06:37.303Z,1.33
2022-10-18T04:09:06.495Z,1.05
2022-10-18T04:11:36.146Z,1.10
2022-10-18T04:14:02.824Z,1.50
2022-10-18T04:16:29.565Z,1.25
2022-10-18T04:18:56.390Z,1.48
2022-10-18T04:21:23.099Z,1.52
2022-10-18T04:23:50.282Z,1.45
2022-10-18T04:26:17.186Z,1.25
2022-10-18T04:28:44.157Z,1.70
2022-10-18T04:31:11.311Z,1.85
2022-10-18T04:33:38.462Z,1.10
2022-10-18T04:36:05.381Z,1.48
2022-10-18T04:38:32.083Z,1.38
2022-10-18T04:40:58.859Z,1.17
2022-10-18T04:43:25.624Z,1.80
2022-10-18T04:45:52.316Z,1.27
2022-10-18T04:48:19.056Z,1.40
2022-10-18T04:50:48.438Z,1.77
2022-10-18T04:53:15.647Z,1.60
2022-10-18T04:55:48.887Z,2.70
2022-10-18T04:58:16.548Z,1.63
2022-10-18T05:00:43.630Z,1.50
2022-10-18T05:03:10.586Z,1.98
2022-10-18T05:05:49.933Z,1.50
2022-10-18T05:08:23.791Z,1.83
2022-10-18T05:10:50.563Z,2.30
2022-10-18T05:13:17.757Z,1.83
2022-10-18T05:15:46.601Z,1.23
2022-10-18T05:18:13.379Z,1.20
2022-10-18T05:20:40.136Z,1.75
2022-10-18T05:23:06.889Z,1.40
2022-10-18T05:25:33.840Z,1.23
2022-10-18T05:28:06.278Z,1.60
2022-10-18T05:30:39.087Z,1.42
2022-10-18T05:33:05.944Z,1.55
2022-10-18T05:35:32.913Z,1.52
2022-10-18T05:38:02.256Z,1.85
2022-10-18T05:40:29.056Z,2.05
2022-10-18T05:42:55.713Z,1.45
2022-10-18T05:45:22.395Z,1.95
2022-10-18T05:47:49.107Z,1.55
2022-10-18T05:50:15.955Z,1.88
2022-10-18T05:52:45.376Z,1.35
2022-10-18T05:55:12.094Z,2.28
2022-10-18T05:57:38.793Z,2.00
2022-10-18T06:00:06.046Z,2.53
2022-10-18T06:02:32.738Z,2.75
2022-10-18T06:04:59.444Z,2.25
2022-10-18T06:07:26.186Z,1.88
2022-10-18T06:09:52.870Z,1.48
2022-10-18T06:12:19.762Z,1.52
2022-10-18T06:14:47.401Z,1.77
2022-10-18T06:17:14.164Z,2.67
2022-10-18T06:19:40.944Z,1.88
2022-10-18T06:22:07.635Z,2.90
2022-10-18T06:24:34.401Z,2.10
2022-10-18T06:27:01.378Z,1.45
2022-10-18T06:29:28.292Z,2.17
2022-10-18T06:31:55.017Z,2.35
2022-10-18T06:34:21.851Z,3.25
2022-10-18T06:36:48.520Z,3.40
2022-10-18T06:39:15.557Z,2.55
2022-10-18T06:41:42.279Z,2.60
2022-10-18T06:44:13.862Z,2.17
2022-10-18T06:46:41.504Z,1.58
2022-10-18T06:49:08.412Z,2.33
2022-10-18T06:51:35.192Z,1.90
2022-10-18T06:54:18.682Z,1.98
2022-10-18T06:56:45.941Z,1.67
2022-10-18T06:59:12.752Z,1.98
2022-10-18T07:01:39.577Z,3.42
2022-10-18T07:04:06.405Z,2.22
2022-10-18T07:06:33.129Z,2.95
2022-10-18T07:09:00.214Z,2.63
2022-10-18T07:11:27.133Z,3.15
2022-10-18T07:13:54.600Z,2.85
2022-10-18T07:16:21.392Z,2.22
2022-10-18T07:18:49.907Z,2.90
2022-10-18T07:21:18.196Z,4.22
2022-10-18T07:23:46.286Z,2.78
2022-10-18T07:26:17.118Z,2.65
2022-10-18T07:28:44.762Z,4.07
2022-10-18T07:31:11.637Z,4.60
2022-10-18T07:33:38.351Z,5.47
2022-10-18T07:36:06.681Z,4.50
2022-10-18T07:38:33.698Z,4.95
2022-10-18T07:41:01.318Z,5.10
2022-10-18T07:43:28.976Z,4.32
2022-10-18T07:45:59.559Z,8.05
2022-10-18T07:48:26.679Z,5.38
2022-10-18T07:50:53.633Z,5.82
2022-10-18T07:53:20.379Z,5.75
2022-10-18T07:55:47.172Z,4.75
2022-10-18T07:58:13.886Z,6.22
2022-10-18T08:00:40.631Z,5.45
2022-10-18T08:03:07.573Z,5.18
2022-10-18T08:05:34.332Z,6.00
2022-10-18T08:08:04.280Z,5.82
2022-10-18T08:10:35.154Z,4.47
2022-10-18T08:13:02.133Z,6.15
2022-10-18T08:15:29.039Z,5.97
2022-10-18T08:17:55.777Z,5.68
2022-10-18T08:20:31.195Z,5.40
2022-10-18T08:23:00.934Z,5.88
2022-10-18T08:25:28.382Z,5.18
2022-10-18T08:27:55.165Z,6.07
2022-10-18T08:30:23.454Z,6.60
2022-10-18T08:32:50.205Z,5.57
2022-10-18T08:35:17.070Z,4.97
2022-10-18T08:37:45.466Z,5.78
2022-10-18T08:40:15.190Z,6.05
2022-10-18T08:43:12.225Z,5.18
2022-10-18T08:45:42.929Z,4.70
2022-10-18T08:48:24.793Z,5.63
2022-10-18T08:50:51.714Z,5.43
2022-10-18T08:53:27.828Z,5.13
2022-10-18T08:56:03.836Z,5.05
2022-10-18T08:58:31.761Z,4.68
2022-10-18T09:01:16.370Z,4.22
2022-10-18T09:04:09.525Z,4.07
2022-10-18T09:06:45.431Z,3.70
2022-10-18T09:09:30.056Z,3.88
2022-10-18T09:12:21.535Z,3.95
2022-10-18T09:14:51.020Z,4.30
2022-10-18T09:17:20.899Z,3.60
2022-10-18T09:20:01.694Z,2.70
2022-10-18T09:22:53.761Z,3.45
2022-10-18T09:25:24.783Z,4.57
2022-10-18T09:27:53.649Z,3.80
2022-10-18T09:30:29.358Z,3.40
2022-10-18T09:33:17.442Z,3.22
2022-10-18T09:35:56.117Z,3.00
2022-10-18T09:40:58.132Z,4.10
2022-10-18T09:43:29.219Z,3.88
2022-10-18T09:45:56.858Z,4.15
2022-10-18T09:48:33.349Z,3.28
2022-10-18T09:51:12.224Z,4.03
2022-10-18T09:53:56.728Z,4.45
2022-10-18T09:56:29.625Z,4.28
2022-10-18T09:58:56.635Z,3.03
2022-10-18T10:01:27.690Z,3.35
2022-10-18T10:03:54.556Z,5.25
2022-10-18T10:06:32.103Z,2.67
2022-10-18T10:09:07.050Z,2.03
2022-10-18T10:11:37.981Z,2.05
2022-10-18T10:14:17.953Z,3.15
2022-10-18T10:16:55.143Z,2.78
2022-10-18T10:19:27.082Z,2.90
2022-10-18T10:21:57.506Z,2.78
2022-10-18T10:24:34.975Z,2.67
2022-10-18T10:27:06.321Z,2.40
2022-10-18T10:29:51.394Z,3.28
2022-10-18T10:32:19.307Z,3.35
2022-10-18T10:34:46.351Z,2.55
2022-10-18T10:37:27.545Z,2.80
2022-10-18T10:40:18.310Z,3.35
2022-10-18T10:42:54.528Z,3.30
2022-10-18T10:45:34.233Z,2.28
2022-10-18T10:48:16.737Z,2.05
2022-10-18T10:50:54.411Z,1.58
2022-10-18T10:53:33.400Z,2.03
2022-10-18T10:56:00.243Z,2.22
2022-10-18T10:58:27.921Z,2.80
2022-10-18T11:00:55.878Z,1.80
2022-10-18T11:03:31.008Z,1.60
2022-10-18T11:06:00.457Z,2.03
2022-10-18T11:08:29.708Z,2.13
2022-10-18T11:11:17.011Z,2.13
2022-10-18T11:14:13.678Z,1.83
2022-10-18T11:17:11.043Z,2.85
2022-10-18T11:19:50.051Z,2.30
2022-10-18T11:22:18.765Z,2.20
2022-10-18T11:24:45.608Z,1.70
2022-10-18T11:27:18.815Z,3.15
2022-10-18T11:29:51.347Z,1.77
2022-10-18T11:32:40.966Z,1.17
2022-10-18T11:35:20.970Z,1.90
2022-10-18T11:37:56.913Z,1.88
2022-10-18T11:40:47.728Z,2.20
2022-10-18T11:44:01.220Z,2.05
2022-10-18T11:46:28.021Z,1.48
2022-10-18T11:49:00.401Z,2.35
2022-10-18T11:52:03.162Z,2.60
2022-10-18T11:54:49.981Z,1.25
2022-10-18T11:57:28.805Z,2.17
2022-10-18T12:00:04.142Z,1.90
2022-10-18T12:02:43.806Z,2.13
2022-10-18T12:05:25.910Z,2.30
2022-10-18T12:07:58.407Z,2.55
2022-10-18T12:10:37.859Z,1.75
2022-10-18T12:13:34.777Z,1.90
2022-10-18T12:16:03.463Z,1.73
2022-10-18T12:18:30.284Z,2.60
2022-10-18T12:20:57.693Z,2.22
2022-10-18T12:23:45.197Z,1.95
2022-10-18T12:26:12.185Z,2.70
2022-10-18T12:28:44.582Z,2.33
2022-10-18T12:31:26.682Z,1.60
2022-10-18T12:34:03.767Z,2.05
2022-10-18T12:36:34.675Z,2.05
2022-10-18T12:39:02.718Z,3.03
2022-10-18T12:41:30.925Z,2.00
2022-10-18T12:44:06.484Z,1.85
2022-10-18T12:46:53.590Z,2.05
2022-10-18T12:49:31.316Z,3.10
2022-10-18T12:52:21.481Z,1.85
2022-10-18T12:55:20.315Z,2.17
2022-10-18T12:57:53.084Z,1.92
2022-10-18T13:00:32.027Z,2.45
2022-10-18T13:03:24.849Z,1.55
2022-10-18T13:05:56.678Z,1.85
2022-10-18T13:08:33.893Z,2.03
2022-10-18T13:11:11.731Z,2.20
2022-10-18T13:13:57.064Z,1.83
2022-10-18T13:16:38.785Z,3.08
2022-10-18T13:19:24.139Z,1.88
2022-10-18T13:22:15.112Z,1.60
2022-10-18T13:25:04.659Z,2.65
2022-10-18T13:27:44.153Z,2.67
2022-10-18T13:30:24.837Z,2.03
2022-10-18T13:33:28.731Z,1.80
2022-10-18T13:36:22.636Z,1.92
2022-10-18T13:38:57.910Z,1.95
2022-10-18T13:41:53.632Z,2.20
2022-10-18T13:44:54.688Z,1.50
2022-10-18T13:47:50.949Z,2.42
2022-10-18T13:50:30.143Z,1.63
2022-10-18T13:53:37.168Z,2.13
2022-10-18T13:56:16.979Z,2.88
2022-10-18T13:58:49.053Z,1.88
2022-10-18T14:01:28.682Z,3.35
2022-10-18T14:04:01.289Z,2.45
2022-10-18T14:06:49.103Z,1.50
2022-10-18T14:09:40.246Z,1.70
2022-10-18T14:12:24.081Z,1.80
2022-10-18T14:15:15.794Z,1.75
2022-10-18T14:17:53.047Z,1.85
2022-10-18T14:20:28.584Z,2.35
2022-10-18T14:22:57.836Z,1.83
2022-10-18T14:25:37.995Z,1.48
2022-10-18T14:28:15.457Z,2.67
2022-10-18T14:31:08.563Z,1.70
2022-10-18T14:33:46.624Z,2.03
2022-10-18T14:36:19.995Z,2.40
2022-10-18T14:39:00.401Z,2.17
2022-10-18T14:41:32.698Z,1.58
2022-10-18T14:44:14.476Z,1.88
2022-10-18T14:46:58.952Z,2.05
2022-10-18T14:49:25.687Z,1.25
2022-10-18T14:51:53.785Z,1.52
2022-10-18T14:54:32.154Z,1.98
2022-10-18T14:57:00.346Z,1.90
2022-10-18T14:59:28.174Z,2.33
2022-10-18T15:02:25.287Z,1.80
2022-10-18T15:05:06.197Z,1.85
2022-10-18T15:07:33.155Z,1.95
2022-10-18T15:10:01.176Z,2.63
2022-10-18T15:12:29.616Z,1.65
2022-10-18T15:14:58.725Z,2.22
2022-10-18T15:17:27.393Z,2.13
2022-10-18T15:20:19.666Z,2.42
2022-10-18T15:22:46.822Z,2.15
2022-10-18T15:25:18.193Z,1.58
2022-10-18T15:27:46.879Z,2.13
2022-10-18T15:30:24.355Z,3.22
2022-10-18T15:32:54.893Z,2.50
2022-10-18T15:35:29.389Z,1.55
2022-10-18T15:37:57.240Z,1.60
2022-10-18T15:40:24.027Z,1.48
2022-10-18T15:42:54.706Z,2.45
2022-10-18T15:45:33.009Z,1.75
2022-10-18T15:48:02.584Z,1.90
2022-10-18T15:50:48.416Z,2.22
2022-10-18T15:53:21.228Z,2.40
2022-10-18T15:56:00.237Z,2.40
2022-10-18T15:58:44.233Z,2.65
2022-10-18T16:01:19.987Z,2.38
2022-10-18T16:03:46.889Z,2.00
2022-10-18T16:06:16.041Z,1.92
2022-10-18T16:08:49.773Z,1.60
2022-10-18T16:11:23.774Z,2.00
2022-10-18T16:13:51.552Z,1.60
2022-10-18T16:16:24.240Z,2.33
2022-10-18T16:18:51.019Z,1.55
2022-10-18T16:21:21.961Z,1.90
2022-10-18T16:23:49.145Z,1.77
2022-10-18T16:26:16.260Z,2.17
2022-10-18T16:28:43.255Z,2.05
2022-10-18T16:31:12.032Z,2.08
2022-10-18T16:33:38.797Z,2.85
2022-10-18T16:36:05.963Z,2.20
2022-10-18T16:38:35.279Z,2.70
2022-10-18T16:41:06.409Z,2.97
2022-10-18T16:43:34.560Z,1.88
2022-10-18T16:46:01.701Z,1.90
2022-10-18T16:48:28.540Z,2.03
2022-10-18T16:50:55.722Z,2.58
2022-10-18T16:53:26.272Z,1.50
2022-10-18T16:55:54.603Z,1.70
2022-10-18T17:00:50.667Z,2.13
2022-10-18T17:03:17.931Z,2.10
2022-10-18T17:05:44.695Z,1.92
2022-10-18T17:08:21.293Z,1.70
2022-10-18T17:10:48.403Z,2.13
2022-10-18T17:13:15.657Z,1.73
2022-10-18T17:15:42.596Z,2.13
2022-10-18T17:18:13.429Z,2.70
2022-10-18T17:20:40.254Z,1.95
2022-10-18T17:23:08.701Z,1.58
2022-10-18T17:25:42.836Z,2.22
2022-10-18T17:28:19.590Z,1.60
2022-10-18T17:30:46.455Z,2.10
2022-10-18T17:33:14.158Z,1.52
2022-10-18T17:35:41.075Z,1.80
2022-10-18T17:38:07.925Z,1.40
2022-10-18T17:40:42.730Z,1.50
2022-10-18T17:43:10.330Z,1.35
2022-10-18T17:45:38.001Z,1.23
2022-10-18T17:48:04.796Z,1.70
2022-10-18T17:50:31.509Z,1.25
2022-10-18T17:52:58.251Z,1.42
2022-10-18T17:55:24.952Z,1.75
2022-10-18T17:57:51.948Z,1.67
2022-10-18T18:00:18.778Z,1.92
2022-10-18T18:02:46.621Z,2.65
2022-10-18T18:05:13.509Z,1.77
2022-10-18T18:07:40.299Z,2.60
2022-10-18T18:10:08.438Z,2.15
2022-10-18T18:12:35.439Z,1.67
2022-10-18T18:15:02.363Z,2.50
2022-10-18T18:17:34.456Z,1.83
2022-10-18T18:20:12.683Z,2.55
2022-10-18T18:22:41.751Z,2.15
2022-10-18T18:25:09.735Z,2.20
2022-10-18T18:27:36.593Z,2.75
2022-10-18T18:30:04.053Z,2.80
2022-10-18T18:32:31.060Z,2.50
2022-10-18T18:34:58.227Z,2.53
2022-10-18T18:37:25.047Z,2.50
2022-10-18T18:39:51.835Z,2.13
2022-10-18T18:42:18.600Z,2.40
2022-10-18T18:44:46.111Z,2.53
2022-10-18T18:47:13.574Z,2.63
2022-10-18T18:49:40.484Z,3.13
2022-10-18T18:52:07.284Z,3.33
2022-10-18T18:54:34.028Z,3.78
2022-10-18T18:57:05.168Z,2.72
2022-10-18T18:59:32.034Z,3.90
2022-10-18T19:02:00.758Z,3.13
2022-10-18T19:04:29.674Z,3.33
2022-10-18T19:06:56.453Z,3.47
2022-10-18T19:09:23.861Z,3.53
2022-10-18T19:11:54.831Z,4.72
2022-10-18T19:16:54.671Z,3.70
2022-10-18T19:19:22.676Z,2.90
2022-10-18T19:21:59.618Z,3.42
2022-10-18T19:24:28.157Z,3.03
2022-10-18T19:26:56.659Z,2.65
2022-10-18T19:29:30.647Z,3.03
2022-10-18T19:31:58.856Z,2.72
2022-10-18T19:34:26.720Z,3.60
2022-10-18T19:36:53.547Z,2.60
2022-10-18T19:39:31.559Z,3.17
2022-10-18T19:42:00.089Z,3.20
2022-10-18T19:44:29.507Z,2.38
2022-10-18T19:46:56.987Z,2.55
2022-10-18T19:49:24.298Z,2.30
2022-10-18T19:51:51.195Z,1.88
2022-10-18T19:54:17.942Z,1.67
2022-10-18T19:56:44.710Z,1.63
2022-10-18T19:59:12.033Z,2.03
2022-10-18T20:01:39.006Z,1.85
2022-10-18T20:04:07.336Z,2.15
2022-10-18T20:06:34.874Z,1.95
2022-10-18T20:09:01.738Z,2.20
2022-10-18T20:11:28.804Z,1.60
2022-10-18T20:13:56.000Z,2.47
2022-10-18T20:16:28.113Z,1.23
2022-10-18T20:19:03.064Z,2.30
2022-10-18T20:21:30.521Z,3.97
2022-10-18T20:23:57.502Z,2.00
2022-10-18T20:26:25.415Z,1.80
2022-10-18T20:28:56.457Z,2.28
2022-10-18T20:31:34.583Z,2.42
2022-10-18T20:34:02.585Z,2.15
2022-10-18T20:36:30.374Z,3.78
2022-10-18T20:38:57.388Z,2.30
2022-10-18T20:41:28.968Z,2.88
2022-10-18T20:44:00.567Z,2.72
2022-10-18T20:46:29.503Z,2.70
2022-10-18T20:48:56.601Z,2.08
2022-10-18T20:51:23.703Z,2.05
2022-10-18T20:53:50.674Z,2.08
2022-10-18T20:56:22.082Z,2.60
2022-10-18T20:58:50.326Z,2.08
2022-10-18T21:01:23.281Z,2.22
2022-10-18T21:03:50.794Z,3.87
2022-10-18T21:06:25.189Z,3.00
2022-10-18T21:08:55.816Z,2.70
2022-10-18T21:11:22.716Z,3.08
2022-10-18T21:13:53.175Z,2.28
2022-10-18T21:16:20.063Z,2.00
2022-10-18T21:18:46.906Z,1.95
2022-10-18T21:21:18.362Z,2.40
2022-10-18T21:23:45.240Z,3.50
2022-10-18T21:26:22.401Z,2.78
2022-10-18T21:28:57.883Z,2.40
2022-10-18T21:31:26.404Z,2.80
2022-10-18T21:34:00.107Z,2.92
2022-10-18T21:36:27.519Z,2.58
2022-10-18T21:38:54.288Z,3.03
2022-10-18T21:41:21.904Z,2.20
2022-10-18T21:43:50.450Z,3.10
2022-10-18T21:46:17.566Z,2.85
2022-10-18T21:48:47.568Z,1.92
2022-10-18T21:51:15.515Z,1.75
2022-10-18T21:53:43.650Z,2.55
2022-10-18T21:56:15.428Z,2.70
2022-10-18T21:58:42.494Z,2.97
2022-10-18T22:01:10.307Z,1.63
2022-10-18T22:03:37.156Z,2.20
2022-10-18T22:06:09.150Z,1.60
2022-10-18T22:08:36.220Z,1.77
2022-10-18T22:11:03.111Z,2.15
2022-10-18T22:13:29.812Z,2.13
2022-10-18T22:15:56.750Z,1.90
2022-10-18T22:18:26.353Z,2.08
2022-10-18T22:21:04.027Z,2.10
2022-10-18T22:23:41.487Z,1.55
2022-10-18T22:26:09.490Z,1.77
2022-10-18T22:28:36.238Z,2.17
2022-10-18T22:31:03.016Z,2.20
2022-10-18T22:33:30.003Z,1.67
2022-10-18T22:35:56.938Z,2.05
2022-10-18T22:38:23.884Z,2.20
2022-10-18T22:40:51.872Z,2.47
2022-10-18T22:43:18.665Z,1.90
2022-10-18T22:45:45.389Z,1.85
2022-10-18T22:48:12.287Z,1.95
2022-10-18T22:50:39.013Z,2.08
2022-10-18T22:53:05.813Z,2.40
2022-10-18T22:55:32.512Z,2.45
2022-10-18T22:57:59.286Z,2.17
2022-10-18T23:00:26.089Z,2.22
2022-10-18T23:02:52.949Z,1.90
2022-10-18T23:05:19.680Z,1.77
2022-10-18T23:07:49.444Z,1.63
2022-10-18T23:10:16.640Z,1.60
2022-10-18T23:12:43.672Z,2.13
2022-10-18T23:15:10.589Z,2.20
2022-10-18T23:17:37.514Z,2.60
2022-10-18T23:20:05.401Z,1.90
2022-10-18T23:22:32.493Z,3.00
2022-10-18T23:24:59.450Z,2.42
2022-10-18T23:27:26.193Z,2.35
2022-10-18T23:29:52.946Z,3.22
2022-10-18T23:32:19.646Z,2.75
2022-10-18T23:34:46.482Z,2.65
2022-10-18T23:37:13.216Z,2.60
2022-10-18T23:39:39.933Z,3.05
2022-10-18T23:42:06.657Z,2.78
2022-10-18T23:44:33.394Z,3.13
2022-10-18T23:47:00.132Z,3.03
2022-10-18T23:49:26.842Z,3.40
2022-10-18T23:51:53.560Z,3.50
2022-10-18T23:54:20.402Z,4.45
2022-10-18T23:56:47.088Z,3.22
2022-10-18T23:59:13.781Z,3.28
